createdAt,value
2018-04-23T00:00:36.439Z,7.87
2018-04-23T00:02:37.411Z,7.30
2018-04-23T00:04:38.422Z,7.87
2018-04-23T00:06:39.405Z,8.30
2018-04-23T00:08:40.365Z,8.93
2018-04-23T00:10:41.305Z,9.77
2018-04-23T00:12:42.327Z,8.80
2018-04-23T00:14:43.334Z,9.87
2018-04-23T00:16:44.294Z,8.30
2018-04-23T00:18:45.251Z,9.47
2018-04-23T00:20:46.230Z,9.60
2018-04-23T00:22:47.206Z,9.40
2018-04-23T00:24:48.192Z,9.80
2018-04-23T00:26:49.248Z,9.73
2018-04-23T00:28:50.277Z,10.33
2018-04-23T00:30:51.198Z,9.80
2018-04-23T00:32:52.949Z,10.30
2018-04-23T00:34:53.939Z,10.27
2018-04-23T00:36:54.902Z,9.90
2018-04-23T00:38:55.894Z,10.27
2018-04-23T00:40:56.863Z,10.50
2018-04-23T00:42:58.555Z,8.90
2018-04-23T00:44:59.735Z,11.03
2018-04-23T00:47:00.725Z,11.03
2018-04-23T00:49:02.438Z,11.97
2018-04-23T00:51:03.382Z,10.50
2018-04-23T00:53:16.703Z,10.40
2018-04-23T00:55:17.683Z,10.70
2018-04-23T00:57:18.687Z,10.40
2018-04-23T00:59:19.675Z,11.60
2018-04-23T01:01:20.639Z,10.83
2018-04-23T01:03:22.405Z,9.70
2018-04-23T01:05:23.386Z,10.70
2018-04-23T01:07:24.399Z,10.03
2018-04-23T01:09:25.397Z,10.73
2018-04-23T01:11:26.356Z,10.60
2018-04-23T01:13:27.391Z,9.77
2018-04-23T01:15:28.337Z,9.17
2018-04-23T01:17:29.335Z,9.97
2018-04-23T01:19:30.288Z,10.23
2018-04-23T01:21:31.979Z,9.70
2018-04-23T01:23:32.990Z,9.37
2018-04-23T01:25:33.986Z,11.67
2018-04-23T01:27:34.966Z,11.23
2018-04-23T01:29:35.933Z,12.53
2018-04-23T01:31:36.875Z,11.70
2018-04-23T01:33:37.835Z,12.10
2018-04-23T01:35:38.818Z,12.60
2018-04-23T01:37:39.762Z,11.53
2018-04-23T01:39:40.960Z,13.47
2018-04-23T01:41:41.956Z,12.53
2018-04-23T01:43:42.931Z,12.30
2018-04-23T01:45:43.875Z,14.13
2018-04-23T01:47:44.820Z,12.70
2018-04-23T01:49:46.043Z,14.70
2018-04-23T01:51:47.154Z,13.90
2018-04-23T01:53:48.903Z,14.90
2018-04-23T01:55:49.843Z,15.37
2018-04-23T01:57:50.820Z,14.73
2018-04-23T01:59:51.850Z,14.90
2018-04-23T02:01:52.815Z,13.50
2018-04-23T02:03:54.575Z,15.60
2018-04-23T02:05:55.582Z,15.07
2018-04-23T02:07:56.510Z,15.60
2018-04-23T02:09:57.535Z,14.90
2018-04-23T02:11:58.485Z,15.57
2018-04-23T02:13:59.494Z,16.80
2018-04-23T02:16:01.233Z,17.23
2018-04-23T02:18:02.234Z,18.20
2018-04-23T02:20:03.191Z,19.03
2018-04-23T02:22:04.227Z,18.33
2018-04-23T02:24:05.171Z,18.00
2018-04-23T02:26:06.850Z,20.00
2018-04-23T02:28:07.867Z,20.13
2018-04-23T02:30:08.907Z,19.17
2018-04-23T02:32:10.687Z,18.37
2018-04-23T02:34:11.711Z,19.13
2018-04-23T02:36:13.404Z,18.60
2018-04-23T02:38:15.091Z,17.63
2018-04-23T02:40:16.038Z,20.30
2018-04-23T02:42:17.127Z,21.37
2018-04-23T02:44:18.146Z,20.00
2018-04-23T02:46:19.195Z,21.40
2018-04-23T02:48:20.251Z,21.90
2018-04-23T02:50:21.289Z,20.63
2018-04-23T02:52:22.227Z,23.90
2018-04-23T02:54:23.273Z,20.50
2018-04-23T02:56:24.238Z,20.40
2018-04-23T02:58:25.329Z,21.73
2018-04-23T03:00:26.298Z,21.53
2018-04-23T03:02:27.303Z,20.67
2018-04-23T03:04:28.287Z,25.55
2018-04-23T03:06:29.242Z,23.10
2018-04-23T03:08:30.327Z,20.17
2018-04-23T03:10:31.384Z,21.03
2018-04-23T03:12:32.426Z,20.83
2018-04-23T03:14:33.428Z,20.93
2018-04-23T03:16:34.495Z,20.90
2018-04-23T03:18:35.520Z,20.73
2018-04-23T03:20:36.653Z,19.87
2018-04-23T03:22:38.423Z,17.30
2018-04-23T03:24:40.242Z,18.30
2018-04-23T03:26:41.379Z,17.90
2018-04-23T03:28:42.447Z,17.37
2018-04-23T03:30:43.502Z,17.03
2018-04-23T03:32:44.505Z,17.53
2018-04-23T03:34:45.822Z,19.07
2018-04-23T03:36:47.636Z,18.33
2018-04-23T03:38:48.613Z,15.60
2018-04-23T03:40:49.682Z,17.90
2018-04-23T03:42:50.697Z,16.60
2018-04-23T03:44:51.772Z,18.90
2018-04-23T03:46:52.723Z,19.20
2018-04-23T03:48:54.461Z,16.73
2018-04-23T03:50:55.494Z,16.20
2018-04-23T03:52:57.138Z,15.90
2018-04-23T03:54:59.659Z,17.33
2018-04-23T03:57:00.595Z,15.57
2018-04-23T03:59:01.550Z,16.90
2018-04-23T04:01:02.489Z,15.60
2018-04-23T04:03:03.426Z,15.00
2018-04-23T04:05:04.409Z,15.93
2018-04-23T04:07:06.102Z,16.00
2018-04-23T04:09:07.095Z,15.73
2018-04-23T04:11:08.093Z,15.37
2018-04-23T04:13:21.474Z,16.53
2018-04-23T04:15:34.970Z,13.70
2018-04-23T04:20:26.547Z,16.80
2018-04-23T04:22:27.500Z,16.70
2018-04-23T04:24:28.458Z,15.57
2018-04-23T04:26:29.409Z,17.10
2018-04-23T04:28:30.359Z,17.37
2018-04-23T04:30:31.300Z,18.20
2018-04-23T04:32:32.254Z,19.00
2018-04-23T04:34:33.215Z,19.77
2018-04-23T04:36:34.152Z,19.50
2018-04-23T04:38:35.105Z,18.67
2018-04-23T04:40:36.047Z,18.87
2018-04-23T04:42:37.016Z,18.30
2018-04-23T04:44:38.704Z,19.70
2018-04-23T04:46:39.640Z,21.30
2018-04-23T04:48:40.689Z,20.30
2018-04-23T04:50:42.375Z,21.47
2018-04-23T04:52:44.046Z,21.30
2018-04-23T04:54:45.194Z,19.60
2018-04-23T04:56:46.154Z,20.00
2018-04-23T04:58:47.110Z,22.13
2018-04-23T05:00:48.054Z,20.23
2018-04-23T05:02:48.999Z,21.30
2018-04-23T05:04:49.962Z,20.30
2018-04-23T05:06:50.931Z,19.47
2018-04-23T05:08:51.903Z,22.90
2018-04-23T05:10:52.848Z,21.30
2018-04-23T05:12:53.803Z,24.73
2018-04-23T05:14:54.807Z,23.53
2018-04-23T05:16:55.763Z,27.17
2018-04-23T05:18:57.448Z,28.87
2018-04-23T05:20:58.470Z,30.90
2018-04-23T05:23:00.152Z,30.13
2018-04-23T05:25:01.099Z,30.27
2018-04-23T05:27:02.053Z,32.30
2018-04-23T05:29:03.006Z,34.20
2018-04-23T05:31:03.953Z,31.67
2018-04-23T05:33:04.896Z,31.50
2018-04-23T05:35:05.827Z,34.80
2018-04-23T05:37:06.754Z,33.07
2018-04-23T05:39:08.478Z,34.10
2018-04-23T05:41:09.419Z,32.90
2018-04-23T05:43:10.372Z,33.67
2018-04-23T05:45:11.346Z,32.60
2018-04-23T05:47:13.041Z,33.67
2018-04-23T05:49:13.983Z,35.87
2018-04-23T05:51:14.931Z,34.97
2018-04-23T05:53:15.886Z,35.23
2018-04-23T05:55:16.846Z,35.30
2018-04-23T05:57:17.855Z,37.80
2018-04-23T05:59:18.807Z,36.23
2018-04-23T06:01:19.755Z,37.97
2018-04-23T06:03:20.698Z,36.20
2018-04-23T06:05:21.650Z,36.30
2018-04-23T06:07:22.589Z,35.70
2018-04-23T06:09:23.542Z,38.10
2018-04-23T06:11:24.477Z,39.40
2018-04-23T06:13:25.430Z,38.50
2018-04-23T06:15:27.270Z,35.90
2018-04-23T06:17:28.958Z,36.60
2018-04-23T06:19:29.910Z,36.27
2018-04-23T06:21:31.698Z,35.40
2018-04-23T06:23:32.627Z,36.50
2018-04-23T06:25:33.571Z,37.70
2018-04-23T06:27:34.514Z,37.23
2018-04-23T06:29:35.454Z,36.30
2018-04-23T06:31:36.383Z,37.33
2018-04-23T06:33:37.378Z,37.37
2018-04-23T06:35:38.342Z,36.07
2018-04-23T06:37:39.294Z,37.70
2018-04-23T06:39:40.990Z,38.17
2018-04-23T06:41:41.922Z,37.20
2018-04-23T06:43:43.811Z,39.43
2018-04-23T06:45:44.835Z,39.27
2018-04-23T06:47:46.510Z,37.73
2018-04-23T06:49:47.455Z,40.10
2018-04-23T06:51:48.425Z,38.43
2018-04-23T06:53:49.354Z,38.47
2018-04-23T06:55:50.319Z,39.80
2018-04-23T06:57:51.257Z,35.60
2018-04-23T06:59:52.250Z,37.67
2018-04-23T07:01:53.238Z,41.40
2018-04-23T07:03:54.151Z,41.60
2018-04-23T07:05:55.503Z,41.70
2018-04-23T07:07:56.548Z,41.03
2018-04-23T07:09:57.506Z,41.10
2018-04-23T07:11:59.194Z,36.87
2018-04-23T07:14:00.160Z,41.03
2018-04-23T07:16:01.167Z,38.83
2018-04-23T07:18:02.875Z,33.17
2018-04-23T07:20:03.881Z,36.40
2018-04-23T07:22:05.570Z,37.00
2018-04-23T07:24:06.533Z,36.20
2018-04-23T07:26:07.486Z,36.27
2018-04-23T07:28:08.439Z,38.60
2018-04-23T07:30:09.387Z,35.93
2018-04-23T07:32:10.340Z,38.00
2018-04-23T07:34:11.293Z,35.77
2018-04-23T07:36:12.230Z,35.97
2018-04-23T07:38:13.167Z,37.70
2018-04-23T07:40:14.111Z,37.00
2018-04-23T07:42:15.662Z,36.13
2018-04-23T07:44:16.758Z,34.70
2018-04-23T07:46:17.734Z,35.47
2018-04-23T07:48:19.878Z,37.60
2018-04-23T07:50:21.583Z,34.13
2018-04-23T07:52:23.804Z,32.67
2018-04-23T07:54:25.495Z,32.60
2018-04-23T07:56:26.443Z,36.27
2018-04-23T07:58:27.378Z,37.63
2018-04-23T08:00:28.316Z,33.60
2018-04-23T08:02:29.275Z,35.20
2018-04-23T08:04:30.223Z,33.43
2018-04-23T08:06:31.174Z,31.70
2018-04-23T08:08:32.114Z,31.57
2018-04-23T08:10:33.085Z,32.73
2018-04-23T08:12:34.074Z,28.40
2018-04-23T08:14:35.006Z,26.03
2018-04-23T08:16:36.023Z,27.60
2018-04-23T08:18:36.961Z,27.07
2018-04-23T08:20:37.922Z,26.17
2018-04-23T08:22:39.048Z,25.93
2018-04-23T08:24:40.046Z,26.40
2018-04-23T08:26:40.991Z,26.87
2018-04-23T08:28:41.926Z,26.37
2018-04-23T08:30:42.863Z,24.73
2018-04-23T08:32:43.889Z,23.47
2018-04-23T08:34:45.120Z,21.63
2018-04-23T08:36:46.320Z,24.52
2018-04-23T08:38:48.056Z,25.50
2018-04-23T08:40:50.003Z,21.03
2018-04-23T08:42:50.998Z,17.30
2018-04-23T08:44:51.933Z,12.00
2018-04-23T08:46:52.910Z,12.37
2018-04-23T08:48:53.937Z,13.03
2018-04-23T08:50:59.004Z,11.30
2018-04-23T08:52:59.955Z,12.17
2018-04-23T08:55:00.923Z,11.97
2018-04-23T08:57:02.618Z,11.17
2018-04-23T08:59:04.302Z,11.17
2018-04-23T09:01:05.242Z,10.53
2018-04-23T09:03:06.177Z,11.87
2018-04-23T09:05:07.123Z,10.70
2018-04-23T09:07:08.054Z,10.07
2018-04-23T09:09:09.014Z,9.53
2018-04-23T09:11:09.946Z,8.80
2018-04-23T09:13:10.938Z,10.27
2018-04-23T09:15:11.879Z,8.77
2018-04-23T09:17:12.818Z,8.40
2018-04-23T09:19:13.758Z,8.87
2018-04-23T09:21:14.705Z,9.20
2018-04-23T09:23:15.638Z,9.70
2018-04-23T09:25:16.578Z,10.17
2018-04-23T09:27:17.544Z,9.30
2018-04-23T09:29:18.501Z,8.57
2018-04-23T09:31:19.565Z,10.17
2018-04-23T09:33:21.245Z,9.40
2018-04-23T09:35:22.192Z,9.87
2018-04-23T09:37:23.132Z,8.80
2018-04-23T09:39:24.830Z,6.60
2018-04-23T09:41:26.506Z,7.90
2018-04-23T09:43:27.455Z,6.33
2018-04-23T09:45:28.386Z,6.40
2018-04-23T09:47:29.360Z,6.63
2018-04-23T09:49:30.301Z,6.60
2018-04-23T09:51:31.262Z,7.30
2018-04-23T09:53:32.953Z,8.07
2018-04-23T09:55:33.909Z,8.53
2018-04-23T09:57:34.850Z,8.10
2018-04-23T09:59:35.805Z,9.20
2018-04-23T10:01:36.770Z,8.63
2018-04-23T10:03:40.805Z,8.57
2018-04-23T10:05:41.755Z,9.53
2018-04-23T10:07:42.786Z,9.00
2018-04-23T10:09:43.708Z,9.37
2018-04-23T10:11:44.651Z,8.77
2018-04-23T10:13:45.943Z,9.10
2018-04-23T10:15:46.902Z,9.67
2018-04-23T10:17:47.838Z,8.70
2018-04-23T10:19:48.782Z,9.70
2018-04-23T10:21:49.730Z,9.47
2018-04-23T10:23:50.671Z,8.07
2018-04-23T10:25:51.623Z,9.17
2018-04-23T10:27:52.583Z,9.70
2018-04-23T10:29:53.554Z,9.33
2018-04-23T10:31:56.246Z,9.60
2018-04-23T10:33:57.182Z,9.13
2018-04-23T10:35:58.881Z,7.70
2018-04-23T10:37:59.850Z,7.43
2018-04-23T10:40:00.779Z,8.00
2018-04-23T10:42:01.842Z,7.07
2018-04-23T10:44:02.769Z,7.50
2018-04-23T10:46:03.710Z,7.13
2018-04-23T10:48:04.684Z,6.30
2018-04-23T10:50:05.699Z,6.70
2018-04-23T10:52:07.944Z,8.33
2018-04-23T10:54:08.919Z,7.60
2018-04-23T10:56:09.868Z,7.17
2018-04-23T10:58:10.859Z,7.40
2018-04-23T11:00:11.807Z,7.77
2018-04-23T11:02:12.753Z,7.60
2018-04-23T11:04:13.703Z,6.90
2018-04-23T11:06:15.386Z,6.67
2018-04-23T11:08:17.083Z,6.07
2018-04-23T11:10:18.031Z,6.17
2018-04-23T11:12:18.990Z,7.40
2018-04-23T11:14:20.886Z,7.47
2018-04-23T11:16:21.898Z,8.80
2018-04-23T11:18:22.860Z,8.60
2018-04-23T11:20:23.795Z,8.20
2018-04-23T11:22:24.747Z,9.13
2018-04-23T11:24:25.694Z,8.87
2018-04-23T11:26:26.662Z,8.70
2018-04-23T11:28:27.753Z,8.70
2018-04-23T11:30:28.695Z,9.00
2018-04-23T11:32:29.641Z,9.27
2018-04-23T11:34:30.583Z,9.20
2018-04-23T11:36:31.534Z,9.40
2018-04-23T11:38:32.466Z,8.10
2018-04-23T11:40:33.400Z,7.90
2018-04-23T11:42:35.081Z,7.07
2018-04-23T11:44:36.019Z,6.80
2018-04-23T11:46:36.971Z,7.10
2018-04-23T11:48:38.586Z,6.70
2018-04-23T11:50:39.526Z,6.30
2018-04-23T11:52:40.482Z,5.80
2018-04-23T11:54:41.422Z,6.60
2018-04-23T11:56:42.390Z,6.53
2018-04-23T11:58:44.066Z,6.27
2018-04-23T12:00:45.020Z,6.83
2018-04-23T12:02:45.970Z,6.50
2018-04-23T12:04:46.903Z,6.17
2018-04-23T12:06:47.854Z,6.13
2018-04-23T12:08:49.242Z,6.50
2018-04-23T12:10:50.196Z,6.50
2018-04-23T12:12:51.127Z,6.17
2018-04-23T12:14:52.099Z,6.17
2018-04-23T12:16:54.222Z,6.13
2018-04-23T12:18:55.185Z,5.90
2018-04-23T12:20:56.236Z,6.43
2018-04-23T12:22:57.255Z,6.57
2018-04-23T12:24:58.240Z,6.60
2018-04-23T12:27:00.353Z,6.37
2018-04-23T12:29:02.055Z,6.57
2018-04-23T12:31:03.002Z,6.23
2018-04-23T12:33:03.943Z,6.80
2018-04-23T12:35:04.894Z,6.10
2018-04-23T12:37:05.829Z,6.33
2018-04-23T12:39:08.099Z,6.40
2018-04-23T12:41:09.039Z,6.60
2018-04-23T12:43:11.474Z,7.03
2018-04-23T12:45:12.415Z,6.50
2018-04-23T12:47:13.344Z,6.80
2018-04-23T12:49:14.297Z,6.77
2018-04-23T12:51:15.286Z,6.97
2018-04-23T12:53:16.967Z,6.80
2018-04-23T12:55:17.939Z,6.60
2018-04-23T12:57:18.883Z,6.00
2018-04-23T12:59:19.822Z,6.40
2018-04-23T13:01:20.759Z,7.47
2018-04-23T13:03:21.694Z,7.70
2018-04-23T13:05:23.371Z,6.93
2018-04-23T13:07:27.460Z,6.47
2018-04-23T13:09:28.449Z,7.10
2018-04-23T13:11:29.425Z,6.63
2018-04-23T13:13:31.411Z,5.67
2018-04-23T13:15:33.130Z,6.53
2018-04-23T13:17:34.074Z,7.30
2018-04-23T13:19:35.006Z,6.50
2018-04-23T13:21:37.054Z,6.23
2018-04-23T13:23:38.119Z,6.40
2018-04-23T13:25:39.102Z,5.87
2018-04-23T13:27:40.080Z,6.87
2018-04-23T13:29:41.023Z,8.13
2018-04-23T13:31:41.962Z,6.97
2018-04-23T13:33:42.923Z,7.27
2018-04-23T13:35:43.894Z,6.20
2018-04-23T13:37:45.586Z,6.57
2018-04-23T13:39:46.554Z,6.47
2018-04-23T13:41:47.495Z,6.70
2018-04-23T13:43:48.468Z,6.97
2018-04-23T13:45:49.410Z,6.37
2018-04-23T13:47:50.366Z,6.70
2018-04-23T13:49:51.481Z,6.77
2018-04-23T13:51:52.445Z,7.73
2018-04-23T13:53:53.453Z,6.80
2018-04-23T13:55:54.393Z,7.40
2018-04-23T13:57:55.394Z,5.90
2018-04-23T13:59:56.351Z,5.17
2018-04-23T14:01:57.295Z,7.10
2018-04-23T14:03:58.985Z,5.83
2018-04-23T14:05:59.934Z,5.23
2018-04-23T14:08:00.907Z,5.50
2018-04-23T14:10:01.858Z,5.70
2018-04-23T14:12:02.802Z,6.03
2018-04-23T14:14:03.780Z,6.30
2018-04-23T14:16:05.462Z,6.23
2018-04-23T14:18:07.130Z,6.90
2018-04-23T14:20:08.913Z,6.23
2018-04-23T14:22:09.974Z,5.70
2018-04-23T14:24:10.919Z,5.70
2018-04-23T14:26:12.607Z,6.53
2018-04-23T14:28:13.556Z,5.60
2018-04-23T14:30:14.486Z,5.23
2018-04-23T14:32:15.472Z,6.30
2018-04-23T14:34:17.232Z,6.47
2018-04-23T14:36:18.982Z,6.53
2018-04-23T14:38:19.926Z,5.93
2018-04-23T14:40:20.970Z,6.53
2018-04-23T14:42:22.877Z,6.40
2018-04-23T14:44:23.860Z,6.23
2018-04-23T14:46:24.797Z,6.97
2018-04-23T14:48:25.770Z,6.80
2018-04-23T14:50:26.890Z,6.47
2018-04-23T14:52:27.885Z,6.63
2018-04-23T14:54:28.864Z,6.37
2018-04-23T14:56:29.851Z,6.93
2018-04-23T14:58:31.896Z,6.83
2018-04-23T15:00:32.971Z,7.12
2018-04-23T15:02:33.947Z,7.20
2018-04-23T15:04:34.888Z,8.13
2018-04-23T15:06:38.211Z,7.03
2018-04-23T15:08:39.581Z,7.57
2018-04-23T15:10:41.948Z,8.90
2018-04-23T15:12:43.901Z,7.73
2018-04-23T15:14:45.003Z,8.73
2018-04-23T15:16:46.076Z,7.80
2018-04-23T15:18:47.931Z,7.60
2018-04-23T15:20:50.084Z,8.23
2018-04-23T15:22:51.259Z,8.53
2018-04-23T15:24:52.322Z,6.97
2018-04-23T15:26:53.446Z,7.90
2018-04-23T15:28:54.630Z,7.70
2018-04-23T15:30:55.775Z,8.10
2018-04-23T15:32:56.908Z,7.57
2018-04-23T15:34:58.027Z,7.77
2018-04-23T15:36:59.113Z,8.13
2018-04-23T15:39:00.171Z,7.70
2018-04-23T15:41:01.276Z,7.97
2018-04-23T15:43:02.294Z,8.20
2018-04-23T15:45:03.384Z,8.20
2018-04-23T15:47:05.174Z,8.00
2018-04-23T15:49:06.325Z,8.50
2018-04-23T15:51:07.373Z,7.97
2018-04-23T15:53:08.518Z,8.37
2018-04-23T15:55:09.669Z,7.57
2018-04-23T15:57:10.740Z,7.40
2018-04-23T15:59:11.831Z,7.00
2018-04-23T16:01:13.017Z,7.53
2018-04-23T16:03:14.044Z,7.27
2018-04-23T16:05:15.046Z,8.77
2018-04-23T16:07:16.153Z,7.37
2018-04-23T16:09:17.098Z,8.13
2018-04-23T16:11:18.162Z,7.13
2018-04-23T16:13:19.222Z,8.13
2018-04-23T16:15:21.024Z,7.23
2018-04-23T16:17:22.079Z,6.93
2018-04-23T16:19:23.170Z,6.60
2018-04-23T16:21:24.234Z,7.20
2018-04-23T16:23:25.183Z,7.30
2018-04-23T16:25:26.233Z,7.07
2018-04-23T16:27:27.622Z,6.63
2018-04-23T16:29:31.019Z,7.30
2018-04-23T16:31:31.984Z,7.40
2018-04-23T16:33:32.950Z,6.57
2018-04-23T16:35:33.891Z,6.97
2018-04-23T16:37:34.829Z,8.10
2018-04-23T16:39:36.867Z,7.30
2018-04-23T16:41:37.810Z,7.30
2018-04-23T16:43:39.519Z,6.67
2018-04-23T16:45:40.447Z,7.20
2018-04-23T16:47:42.390Z,6.67
2018-04-23T16:49:43.339Z,6.30
2018-04-23T16:51:44.271Z,7.50
2018-04-23T16:53:45.955Z,6.90
2018-04-23T16:55:46.900Z,7.10
2018-04-23T16:57:50.786Z,6.37
2018-04-23T16:59:51.948Z,6.23
2018-04-23T17:01:55.605Z,6.60
2018-04-23T17:03:56.578Z,6.10
2018-04-23T17:05:57.544Z,5.70
2018-04-23T17:07:59.379Z,5.70
2018-04-23T17:10:00.315Z,5.80
2018-04-23T17:12:01.298Z,5.43
2018-04-23T17:14:02.350Z,5.17
2018-04-23T17:16:04.022Z,5.50
2018-04-23T17:18:05.713Z,5.33
2018-04-23T17:20:06.675Z,4.83
2018-04-23T17:22:07.643Z,4.63
2018-04-23T17:24:08.607Z,4.50
2018-04-23T17:26:10.810Z,5.53
2018-04-23T17:28:11.780Z,5.77
2018-04-23T17:30:12.755Z,5.50
2018-04-23T17:32:13.696Z,5.77
2018-04-23T17:34:15.290Z,5.60
2018-04-23T17:36:16.326Z,5.47
2018-04-23T17:38:17.254Z,5.83
2018-04-23T17:40:18.198Z,5.73
2018-04-23T17:42:19.155Z,5.60
2018-04-23T17:44:20.186Z,5.00
2018-04-23T17:46:21.167Z,5.23
2018-04-23T17:48:22.921Z,5.90
2018-04-23T17:50:26.479Z,4.50
2018-04-23T17:52:28.816Z,4.73
2018-04-23T17:54:29.840Z,5.27
2018-04-23T17:56:30.860Z,5.30
2018-04-23T17:58:33.345Z,4.50
2018-04-23T18:00:34.363Z,5.00
2018-04-23T18:02:35.367Z,4.97
2018-04-23T18:04:36.344Z,4.80
2018-04-23T18:06:37.340Z,4.75
2018-04-23T18:08:38.339Z,5.33
2018-04-23T18:10:39.354Z,4.67
2018-04-23T18:12:40.406Z,4.13
2018-04-23T18:14:41.548Z,4.60
2018-04-23T18:16:43.279Z,4.40
2018-04-23T18:18:44.365Z,4.40
2018-04-23T18:20:45.380Z,4.47
2018-04-23T18:22:46.747Z,4.00
2018-04-23T18:24:47.756Z,4.37
2018-04-23T18:26:48.753Z,4.00
2018-04-23T18:28:49.702Z,4.10
2018-04-23T18:30:50.663Z,4.50
2018-04-23T18:32:51.594Z,3.50
2018-04-23T18:34:52.582Z,4.03
2018-04-23T18:36:53.546Z,4.20
2018-04-23T18:38:54.558Z,4.30
2018-04-23T18:40:56.266Z,4.00
2018-04-23T18:42:57.210Z,4.20
2018-04-23T18:44:58.170Z,4.50
2018-04-23T18:46:59.147Z,4.10
2018-04-23T18:49:00.136Z,4.73
2018-04-23T18:51:01.090Z,4.30
2018-04-23T18:53:02.027Z,4.50
2018-04-23T18:55:02.965Z,5.17
2018-04-23T18:57:04.149Z,5.30
2018-04-23T18:59:06.027Z,4.27
2018-04-23T19:01:07.002Z,4.67
2018-04-23T19:03:08.019Z,4.37
2018-04-23T19:05:09.007Z,4.73
2018-04-23T19:07:10.119Z,5.27
2018-04-23T19:09:11.930Z,4.43
2018-04-23T19:11:12.878Z,5.33
2018-04-23T19:13:13.912Z,5.20
2018-04-23T19:15:14.910Z,4.87
2018-04-23T19:17:15.935Z,5.00
2018-04-23T19:19:16.916Z,4.80
2018-04-23T19:21:17.948Z,5.10
2018-04-23T19:23:24.038Z,5.60
2018-04-23T19:25:30.290Z,5.17
2018-04-23T19:27:31.887Z,5.23
2018-04-23T19:29:34.672Z,4.23
2018-04-23T19:31:46.933Z,4.57
2018-04-23T19:33:49.623Z,4.80
2018-04-23T19:35:50.689Z,4.90
2018-04-23T19:37:51.700Z,4.43
2018-04-23T19:39:53.720Z,4.07
2018-04-23T19:41:55.005Z,4.43
2018-04-23T19:43:56.247Z,4.40
2018-04-23T19:45:59.476Z,4.43
2018-04-23T19:48:00.539Z,4.17
2018-04-23T19:50:16.604Z,3.83
2018-04-23T19:52:18.303Z,3.90
2018-04-23T19:54:19.283Z,3.07
2018-04-23T19:56:29.748Z,3.33
2018-04-23T19:58:30.904Z,3.60
2018-04-23T20:00:31.958Z,3.20
2018-04-23T20:02:32.918Z,3.83
2018-04-23T20:06:47.490Z,3.37
2018-04-23T20:08:48.507Z,2.73
2018-04-23T20:10:49.564Z,3.33
2018-04-23T20:12:50.535Z,2.97
2018-04-23T20:14:51.548Z,3.27
2018-04-23T20:16:57.742Z,3.20
2018-04-23T20:18:59.306Z,3.13
2018-04-23T20:21:00.358Z,3.67
2018-04-23T20:23:01.832Z,3.50
2018-04-23T20:25:02.892Z,3.50
2018-04-23T20:27:17.208Z,3.80
2018-04-23T20:29:18.259Z,3.77
2018-04-23T20:31:19.318Z,4.37
2018-04-23T20:33:20.434Z,3.30
2018-04-23T20:35:21.321Z,3.53
2018-04-23T20:37:22.302Z,4.20
2018-04-23T20:39:23.283Z,3.90
2018-04-23T20:41:24.276Z,4.10
2018-04-23T20:43:26.047Z,4.17
2018-04-23T20:45:27.738Z,3.77
2018-04-23T20:47:28.750Z,3.83
2018-04-23T20:49:30.495Z,4.17
2018-04-23T20:51:34.552Z,4.00
2018-04-23T20:53:35.666Z,4.27
2018-04-23T20:55:40.671Z,4.17
2018-04-23T20:57:47.031Z,4.10
2018-04-23T21:02:16.470Z,4.37
2018-04-23T21:04:17.476Z,4.50
2018-04-23T21:06:18.451Z,4.77
2018-04-23T21:08:19.551Z,4.07
2018-04-23T21:10:20.643Z,4.57
2018-04-23T21:12:21.609Z,3.90
2018-04-23T21:14:22.837Z,4.03
2018-04-23T21:16:24.619Z,3.40
2018-04-23T21:18:25.585Z,4.00
2018-04-23T21:20:26.795Z,3.73
2018-04-23T21:22:28.665Z,3.80
2018-04-23T21:24:30.145Z,4.20
2018-04-23T21:26:31.218Z,3.60
2018-04-23T21:28:36.482Z,3.70
2018-04-23T21:30:40.350Z,3.80
2018-04-23T21:32:46.284Z,4.17
2018-04-23T21:34:47.995Z,4.53
2018-04-23T21:36:48.984Z,3.57
2018-04-23T21:38:49.940Z,4.30
2018-04-23T21:40:50.899Z,3.30
2018-04-23T21:42:57.590Z,4.00
2018-04-23T21:44:58.502Z,3.70
2018-04-23T21:46:59.546Z,4.20
2018-04-23T21:49:03.841Z,3.80
2018-04-23T21:51:04.846Z,4.10
2018-04-23T21:53:05.788Z,3.47
2018-04-23T21:55:07.530Z,3.83
2018-04-23T21:57:08.458Z,3.80
2018-04-23T21:59:09.445Z,3.90
2018-04-23T22:01:13.068Z,4.00
2018-04-23T22:03:14.190Z,4.07
2018-04-23T22:05:15.220Z,3.57
2018-04-23T22:07:17.362Z,3.67
2018-04-23T22:09:18.472Z,3.97
2018-04-23T22:11:19.455Z,3.57
2018-04-23T22:13:20.466Z,4.13
2018-04-23T22:15:22.468Z,4.17
2018-04-23T22:17:25.635Z,3.70
2018-04-23T22:19:27.594Z,3.40
2018-04-23T22:21:29.584Z,4.27
2018-04-23T22:23:30.667Z,3.70
2018-04-23T22:25:31.603Z,3.40
2018-04-23T22:27:37.013Z,3.30
2018-04-23T22:29:38.190Z,3.67
2018-04-23T22:31:39.182Z,3.90
2018-04-23T22:33:40.631Z,4.00
2018-04-23T22:35:41.782Z,3.83
2018-04-23T22:37:42.886Z,4.27
2018-04-23T22:39:43.911Z,4.00
2018-04-23T22:41:45.636Z,4.00
2018-04-23T22:43:46.571Z,4.03
2018-04-23T22:45:48.278Z,3.83
2018-04-23T22:47:49.235Z,3.97
2018-04-23T22:49:50.248Z,3.80
2018-04-23T22:51:51.314Z,4.10
2018-04-23T22:53:52.312Z,3.80
2018-04-23T22:55:53.268Z,4.10
2018-04-23T22:57:54.488Z,4.93
2018-04-23T22:59:55.486Z,4.70
2018-04-23T23:01:59.348Z,4.57
2018-04-23T23:04:05.680Z,4.50
2018-04-23T23:06:06.776Z,4.07
2018-04-23T23:08:07.808Z,3.97
2018-04-23T23:10:09.563Z,4.00
2018-04-23T23:31:53.964Z,4.70
2018-04-23T23:33:55.694Z,4.50
2018-04-23T23:35:56.648Z,5.23
2018-04-23T23:37:57.681Z,4.97
2018-04-23T23:39:59.105Z,5.87
2018-04-23T23:42:00.206Z,5.60
2018-04-23T23:44:01.263Z,5.70
2018-04-23T23:46:02.994Z,5.53
2018-04-23T23:48:03.978Z,5.60
2018-04-23T23:50:05.797Z,6.10
2018-04-23T23:52:07.723Z,5.80
2018-04-23T23:54:09.445Z,5.80
2018-04-23T23:56:10.466Z,5.10
2018-04-23T23:58:11.542Z,5.67
